createdAt,value
2023-03-21T00:00:32.535Z,14.00
2023-03-21T00:01:34.376Z,14.00
2023-03-21T00:02:36.106Z,14.00
2023-03-21T00:03:38.268Z,13.90
2023-03-21T00:04:50.886Z,13.90
2023-03-21T00:05:54.308Z,13.90
2023-03-21T00:06:56.412Z,13.90
2023-03-21T00:07:59.510Z,13.80
2023-03-21T00:09:02.335Z,13.90
2023-03-21T00:10:14.436Z,13.90
2023-03-21T00:11:17.619Z,13.90
2023-03-21T00:12:21.151Z,13.90
2023-03-21T00:13:23.210Z,13.90
2023-03-21T00:14:26.130Z,13.90
2023-03-21T00:15:41.148Z,13.90
2023-03-21T00:16:52.201Z,13.90
2023-03-21T00:18:03.453Z,13.90
2023-03-21T00:19:06.451Z,13.90
2023-03-21T00:20:15.603Z,13.90
2023-03-21T00:22:42.231Z,13.80
2023-03-21T00:23:44.520Z,13.80
2023-03-21T00:24:46.515Z,13.80
2023-03-21T00:25:48.198Z,13.70
2023-03-21T00:26:51.351Z,13.70
2023-03-21T00:28:07.228Z,13.80
2023-03-21T00:29:09.924Z,13.80
2023-03-21T00:30:13.874Z,13.80
2023-03-21T00:31:16.071Z,13.80
2023-03-21T00:32:19.422Z,13.80
2023-03-21T00:33:22.919Z,13.80
2023-03-21T00:34:36.555Z,13.80
2023-03-21T00:36:02.421Z,13.80
2023-03-21T00:37:10.090Z,13.80
2023-03-21T00:38:12.411Z,13.80
2023-03-21T00:39:15.409Z,13.70
2023-03-21T00:40:26.605Z,13.70
2023-03-21T00:41:41.983Z,13.80
2023-03-21T00:42:44.395Z,13.80
2023-03-21T00:43:46.294Z,13.80
2023-03-21T00:44:48.680Z,13.80
2023-03-21T00:45:51.688Z,13.80
2023-03-21T00:47:06.212Z,13.80
2023-03-21T00:48:09.070Z,13.80
2023-03-21T00:49:11.047Z,13.70
2023-03-21T00:50:13.014Z,13.90
2023-03-21T00:51:27.135Z,13.70
2023-03-21T00:52:40.128Z,13.70
2023-03-21T00:53:42.902Z,13.70
2023-03-21T00:54:44.744Z,13.70
2023-03-21T00:55:46.598Z,13.80
2023-03-21T00:56:48.321Z,13.80
2023-03-21T00:57:56.103Z,13.70
2023-03-21T00:59:01.538Z,13.70
2023-03-21T01:00:06.534Z,13.70
2023-03-21T01:01:09.893Z,13.70
2023-03-21T01:02:15.202Z,13.70
2023-03-21T01:03:24.969Z,13.70
2023-03-21T01:04:28.706Z,13.70
2023-03-21T01:05:50.928Z,13.70
2023-03-21T01:06:53.888Z,13.70
2023-03-21T01:07:56.052Z,13.70
2023-03-21T01:08:57.848Z,13.70
2023-03-21T01:10:01.302Z,13.60
2023-03-21T01:11:15.008Z,13.60
2023-03-21T01:12:16.915Z,13.60
2023-03-21T01:13:20.751Z,13.60
2023-03-21T01:14:24.099Z,13.60
2023-03-21T01:15:26.056Z,13.70
2023-03-21T01:16:28.134Z,13.60
2023-03-21T01:17:30.176Z,13.70
2023-03-21T01:18:33.067Z,13.60
2023-03-21T01:19:50.749Z,13.70
2023-03-21T01:20:55.139Z,13.60
2023-03-21T01:21:58.060Z,13.60
2023-03-21T01:22:59.772Z,13.70
2023-03-21T01:24:01.955Z,13.60
2023-03-21T01:25:21.293Z,13.60
2023-03-21T01:26:24.274Z,13.70
2023-03-21T01:27:26.028Z,13.70
2023-03-21T01:28:29.474Z,13.70
2023-03-21T01:29:31.293Z,13.70
2023-03-21T01:30:37.050Z,13.70
2023-03-21T01:31:43.526Z,13.60
2023-03-21T01:32:45.322Z,13.60
2023-03-21T01:33:47.650Z,13.60
2023-03-21T01:34:49.862Z,13.60
2023-03-21T01:35:57.573Z,13.60
2023-03-21T01:37:08.217Z,13.60
2023-03-21T01:38:10.563Z,13.60
2023-03-21T01:39:12.300Z,13.60
2023-03-21T01:40:21.690Z,13.60
2023-03-21T01:41:42.334Z,13.60
2023-03-21T01:42:45.778Z,13.60
2023-03-21T01:43:48.186Z,13.60
2023-03-21T01:44:59.983Z,13.60
2023-03-21T01:46:22.692Z,13.60
2023-03-21T01:47:25.187Z,13.60
2023-03-21T01:48:29.112Z,13.60
2023-03-21T01:49:41.742Z,13.50
2023-03-21T01:50:43.820Z,13.50
2023-03-21T01:52:01.104Z,13.50
2023-03-21T01:53:05.630Z,13.60
2023-03-21T01:54:15.040Z,13.60
2023-03-21T01:55:18.212Z,13.50
2023-03-21T01:56:28.478Z,13.60
2023-03-21T01:57:49.416Z,13.60
2023-03-21T01:59:08.340Z,13.60
2023-03-21T02:00:13.092Z,13.60
2023-03-21T02:01:15.976Z,13.50
2023-03-21T02:02:28.099Z,13.60
2023-03-21T02:03:38.272Z,13.50
2023-03-21T02:04:40.933Z,13.50
2023-03-21T02:06:02.694Z,13.50
2023-03-21T02:07:07.525Z,13.50
2023-03-21T02:08:09.316Z,13.50
2023-03-21T02:09:18.370Z,13.50
2023-03-21T02:10:22.157Z,13.50
2023-03-21T02:11:24.647Z,13.50
2023-03-21T02:12:27.259Z,13.50
2023-03-21T02:13:29.002Z,13.50
2023-03-21T02:14:33.355Z,13.50
2023-03-21T02:15:38.553Z,13.50
2023-03-21T02:16:55.446Z,13.50
2023-03-21T02:18:07.432Z,13.50
2023-03-21T02:19:31.987Z,13.50
2023-03-21T02:20:54.469Z,13.50
2023-03-21T02:22:07.401Z,13.50
2023-03-21T02:23:18.010Z,13.50
2023-03-21T02:24:46.285Z,13.40
2023-03-21T02:25:53.639Z,13.40
2023-03-21T02:27:04.717Z,13.40
2023-03-21T02:28:36.039Z,13.50
2023-03-21T02:29:50.091Z,13.40
2023-03-21T02:31:00.408Z,13.40
2023-03-21T02:32:37.328Z,13.50
2023-03-21T02:34:03.291Z,13.40
2023-03-21T02:35:52.522Z,13.40
2023-03-21T02:37:17.113Z,13.40
2023-03-21T02:38:32.202Z,13.40
2023-03-21T02:39:40.098Z,13.40
2023-03-21T02:41:18.360Z,13.40
2023-03-21T02:42:44.946Z,13.40
2023-03-21T02:44:04.398Z,13.40
2023-03-21T02:45:14.687Z,13.40
2023-03-21T02:46:26.169Z,13.40
2023-03-21T02:47:42.834Z,13.40
2023-03-21T02:49:01.877Z,13.40
2023-03-21T02:50:21.920Z,13.40
2023-03-21T02:51:26.139Z,13.40
2023-03-21T02:52:39.002Z,13.30
2023-03-21T02:53:51.726Z,13.30
2023-03-21T02:55:01.053Z,13.30
2023-03-21T02:56:04.602Z,13.30
2023-03-21T02:57:06.832Z,13.40
2023-03-21T02:58:13.492Z,13.40
2023-03-21T02:59:17.848Z,13.30
2023-03-21T03:00:24.825Z,13.30
2023-03-21T03:01:26.962Z,13.40
2023-03-21T03:02:31.182Z,13.30
2023-03-21T03:03:35.175Z,13.40
2023-03-21T03:04:37.087Z,13.30
2023-03-21T03:05:49.836Z,13.30
2023-03-21T03:07:04.674Z,13.40
2023-03-21T03:09:01.405Z,13.30
2023-03-21T03:10:25.581Z,13.30
2023-03-21T03:11:36.711Z,13.30
2023-03-21T03:12:44.266Z,13.20
2023-03-21T03:16:00.497Z,13.20
2023-03-21T03:17:08.096Z,13.10
2023-03-21T03:18:33.630Z,13.10
2023-03-21T03:19:50.682Z,13.10
2023-03-21T03:21:19.858Z,13.10
2023-03-21T03:22:34.032Z,13.00
2023-03-21T03:23:47.547Z,13.10
2023-03-21T03:25:18.609Z,13.10
2023-03-21T03:26:28.261Z,13.10
2023-03-21T03:27:37.085Z,13.10
2023-03-21T03:28:44.267Z,13.00
2023-03-21T03:29:48.868Z,13.00
2023-03-21T03:31:07.669Z,13.00
2023-03-21T03:32:25.776Z,13.10
2023-03-21T03:33:30.035Z,13.10
2023-03-21T03:34:41.500Z,13.10
2023-03-21T03:35:48.307Z,13.00
2023-03-21T03:39:13.681Z,13.00
2023-03-21T03:40:39.355Z,13.00
2023-03-21T03:43:24.340Z,12.90
2023-03-21T03:44:28.366Z,12.90
2023-03-21T03:45:54.818Z,12.90
2023-03-21T03:47:01.920Z,12.90
2023-03-21T03:48:15.013Z,13.00
2023-03-21T03:49:23.930Z,12.90
2023-03-21T03:50:42.256Z,13.00
2023-03-21T03:52:02.438Z,13.00
2023-03-21T03:53:18.647Z,13.00
2023-03-21T03:54:53.577Z,13.00
2023-03-21T03:55:56.649Z,13.00
2023-03-21T03:56:58.575Z,13.00
2023-03-21T03:58:03.228Z,13.00
2023-03-21T03:59:07.427Z,13.00
2023-03-21T04:00:15.904Z,13.00
2023-03-21T04:01:18.111Z,13.10
2023-03-21T04:02:20.635Z,13.00
2023-03-21T04:03:22.760Z,13.10
2023-03-21T04:04:29.556Z,13.10
2023-03-21T04:05:31.273Z,13.10
2023-03-21T04:06:33.206Z,13.10
2023-03-21T04:07:35.288Z,13.10
2023-03-21T04:08:37.755Z,13.10
2023-03-21T04:09:44.659Z,13.10
2023-03-21T04:10:46.822Z,13.10
2023-03-21T04:11:48.794Z,13.10
2023-03-21T04:12:50.793Z,13.00
2023-03-21T04:13:52.777Z,13.10
2023-03-21T04:14:57.085Z,13.10
2023-03-21T04:16:08.036Z,13.10
2023-03-21T04:17:11.326Z,13.10
2023-03-21T04:18:13.163Z,13.10
2023-03-21T04:19:16.224Z,13.10
2023-03-21T04:20:26.657Z,13.10
2023-03-21T04:21:38.123Z,13.10
2023-03-21T04:22:41.060Z,13.00
2023-03-21T04:23:42.931Z,13.00
2023-03-21T04:24:45.086Z,13.00
2023-03-21T04:25:55.995Z,13.00
2023-03-21T04:26:58.566Z,13.00
2023-03-21T04:28:00.417Z,13.00
2023-03-21T04:29:03.438Z,13.10
2023-03-21T04:30:06.409Z,13.10
2023-03-21T04:31:24.530Z,13.00
2023-03-21T04:32:28.090Z,13.00
2023-03-21T04:33:29.879Z,13.10
2023-03-21T04:34:31.610Z,13.10
2023-03-21T04:35:37.081Z,13.10
2023-03-21T04:36:43.211Z,13.10
2023-03-21T04:37:45.342Z,13.10
2023-03-21T04:38:48.704Z,13.10
2023-03-21T04:39:51.253Z,13.10
2023-03-21T04:40:53.073Z,13.10
2023-03-21T04:41:54.778Z,13.10
2023-03-21T04:42:57.155Z,13.10
2023-03-21T04:43:58.971Z,13.10
2023-03-21T04:45:01.261Z,13.10
2023-03-21T04:46:03.193Z,13.10
2023-03-21T04:47:05.222Z,13.10
2023-03-21T04:48:07.103Z,13.10
2023-03-21T04:49:09.307Z,13.10
2023-03-21T04:50:11.854Z,13.10
2023-03-21T04:51:14.040Z,13.10
2023-03-21T04:52:16.295Z,13.10
2023-03-21T04:53:18.989Z,13.10
2023-03-21T04:54:21.082Z,13.00
2023-03-21T04:55:25.334Z,13.00
2023-03-21T04:56:32.548Z,13.10
2023-03-21T04:57:34.358Z,13.00
2023-03-21T04:58:37.144Z,13.00
2023-03-21T04:59:38.884Z,13.00
2023-03-21T05:00:40.954Z,13.00
2023-03-21T05:01:44.097Z,13.00
2023-03-21T05:02:46.307Z,13.00
2023-03-21T05:03:48.129Z,13.00
2023-03-21T05:04:49.822Z,13.00
2023-03-21T05:05:51.760Z,13.00
2023-03-21T05:06:54.540Z,13.00
2023-03-21T05:07:56.259Z,13.00
2023-03-21T05:09:05.247Z,13.00
2023-03-21T05:10:10.294Z,13.00
2023-03-21T05:11:11.990Z,13.00
2023-03-21T05:12:13.668Z,13.00
2023-03-21T05:13:15.516Z,13.00
2023-03-21T05:14:20.792Z,13.00
2023-03-21T05:15:22.718Z,13.00
2023-03-21T05:16:27.214Z,12.90
2023-03-21T05:17:29.554Z,13.00
2023-03-21T05:18:35.052Z,13.00
2023-03-21T05:19:40.750Z,13.00
2023-03-21T05:20:42.923Z,13.00
2023-03-21T05:21:45.157Z,12.90
2023-03-21T05:22:50.262Z,12.90
2023-03-21T05:23:54.524Z,12.90
2023-03-21T05:24:56.828Z,12.90
2023-03-21T05:25:58.751Z,12.90
2023-03-21T05:27:04.528Z,12.90
2023-03-21T05:28:08.053Z,12.90
2023-03-21T05:29:11.285Z,12.90
2023-03-21T05:30:16.209Z,12.90
2023-03-21T05:31:18.921Z,12.90
2023-03-21T05:32:21.843Z,12.90
2023-03-21T05:33:23.825Z,12.90
2023-03-21T05:34:25.656Z,12.90
2023-03-21T05:35:28.297Z,12.90
2023-03-21T05:36:30.152Z,12.90
2023-03-21T05:37:31.898Z,12.90
2023-03-21T05:38:34.168Z,12.90
2023-03-21T05:39:36.195Z,12.90
2023-03-21T05:40:38.040Z,12.90
2023-03-21T05:41:39.771Z,12.90
2023-03-21T05:42:41.748Z,12.90
2023-03-21T05:43:43.566Z,12.90
2023-03-21T05:44:47.257Z,12.90
2023-03-21T05:45:49.084Z,12.90
2023-03-21T05:46:50.717Z,12.90
2023-03-21T05:47:52.667Z,12.90
2023-03-21T05:48:54.921Z,12.90
2023-03-21T05:49:56.651Z,12.90
2023-03-21T05:50:58.360Z,12.90
2023-03-21T05:52:00.282Z,12.90
2023-03-21T05:53:02.238Z,12.90
2023-03-21T05:54:03.952Z,12.90
2023-03-21T05:55:06.341Z,12.90
2023-03-21T05:56:08.640Z,12.90
2023-03-21T05:57:10.939Z,12.90
2023-03-21T05:58:12.882Z,12.90
2023-03-21T05:59:14.623Z,12.90
2023-03-21T06:00:18.156Z,12.90
2023-03-21T06:01:19.933Z,12.90
2023-03-21T06:02:21.868Z,12.90
2023-03-21T06:03:23.747Z,12.90
2023-03-21T06:04:25.692Z,12.90
2023-03-21T06:05:28.026Z,12.90
2023-03-21T06:06:29.789Z,12.90
2023-03-21T06:07:31.692Z,12.90
2023-03-21T06:08:33.354Z,12.90
2023-03-21T06:09:35.084Z,12.90
2023-03-21T06:10:37.167Z,12.90
2023-03-21T06:11:42.378Z,12.90
2023-03-21T06:12:44.371Z,13.00
2023-03-21T06:13:48.971Z,13.00
2023-03-21T06:14:50.663Z,13.00
2023-03-21T06:15:52.824Z,13.00
2023-03-21T06:16:54.534Z,13.00
2023-03-21T06:17:56.177Z,13.00
2023-03-21T06:18:57.909Z,13.00
2023-03-21T06:20:01.115Z,13.00
2023-03-21T06:21:02.796Z,13.00
2023-03-21T06:22:04.414Z,13.00
2023-03-21T06:23:06.343Z,13.10
2023-03-21T06:24:08.562Z,13.10
2023-03-21T06:25:10.528Z,13.10
2023-03-21T06:26:12.562Z,13.10
2023-03-21T06:27:14.306Z,13.10
2023-03-21T06:28:16.252Z,13.10
2023-03-21T06:29:17.909Z,13.10
2023-03-21T06:30:19.829Z,13.00
2023-03-21T06:31:22.873Z,13.00
2023-03-21T06:32:25.496Z,13.00
2023-03-21T06:33:27.386Z,12.90
2023-03-21T06:34:29.001Z,12.90
2023-03-21T06:35:30.685Z,12.90
2023-03-21T06:36:32.550Z,12.80
2023-03-21T06:37:34.216Z,12.80
2023-03-21T06:38:38.021Z,12.80
2023-03-21T06:39:40.180Z,12.80
2023-03-21T06:40:41.942Z,12.80
2023-03-21T06:41:43.862Z,12.90
2023-03-21T06:42:45.534Z,12.80
2023-03-21T06:43:48.686Z,12.80
2023-03-21T06:44:50.508Z,12.90
2023-03-21T06:45:52.156Z,12.90
2023-03-21T06:46:53.999Z,12.90
2023-03-21T06:47:55.662Z,12.80
2023-03-21T06:48:57.293Z,12.80
2023-03-21T06:49:58.922Z,12.80
2023-03-21T06:51:00.597Z,12.80
2023-03-21T06:52:02.469Z,12.80
2023-03-21T06:53:04.264Z,12.70
2023-03-21T06:54:07.078Z,12.70
2023-03-21T06:55:09.277Z,12.70
2023-03-21T06:56:12.108Z,12.70
2023-03-21T06:57:13.921Z,12.60
2023-03-21T06:58:15.931Z,12.60
2023-03-21T06:59:17.905Z,12.70
2023-03-21T07:00:21.513Z,12.60
2023-03-21T07:01:23.739Z,12.60
2023-03-21T07:02:26.034Z,12.60
2023-03-21T07:03:28.034Z,12.60
2023-03-21T07:04:29.934Z,12.70
2023-03-21T07:05:36.440Z,12.70
2023-03-21T07:06:38.896Z,12.70
2023-03-21T07:07:41.104Z,12.70
2023-03-21T07:08:45.226Z,12.70
2023-03-21T07:09:46.865Z,12.70
2023-03-21T07:10:48.737Z,12.80
2023-03-21T07:11:53.429Z,12.80
2023-03-21T07:12:55.158Z,12.90
2023-03-21T07:13:57.153Z,12.90
2023-03-21T07:14:58.993Z,12.90
2023-03-21T07:16:00.955Z,12.90
2023-03-21T07:17:04.057Z,13.00
2023-03-21T07:18:06.979Z,13.00
2023-03-21T07:19:08.630Z,13.00
2023-03-21T07:20:12.646Z,13.00
2023-03-21T07:21:14.586Z,13.10
2023-03-21T07:22:16.590Z,13.10
2023-03-21T07:23:22.973Z,13.10
2023-03-21T07:24:25.028Z,13.10
2023-03-21T07:25:29.067Z,13.10
2023-03-21T07:26:32.013Z,13.10
2023-03-21T07:27:33.789Z,13.10
2023-03-21T07:28:35.724Z,13.10
2023-03-21T07:29:38.101Z,13.10
2023-03-21T07:30:39.973Z,13.20
2023-03-21T07:31:41.842Z,13.20
2023-03-21T07:32:45.839Z,13.20
2023-03-21T07:33:47.439Z,13.20
2023-03-21T07:34:50.600Z,13.20
2023-03-21T07:35:54.054Z,13.20
2023-03-21T07:36:57.044Z,13.20
2023-03-21T07:37:58.705Z,13.20
2023-03-21T07:39:00.746Z,13.20
2023-03-21T07:40:02.997Z,13.20
2023-03-21T07:41:04.849Z,13.30
2023-03-21T07:42:06.834Z,13.30
2023-03-21T07:43:08.548Z,13.30
2023-03-21T07:44:10.283Z,13.30
2023-03-21T07:45:16.501Z,13.30
2023-03-21T07:46:20.202Z,13.40
2023-03-21T07:47:23.308Z,13.40
2023-03-21T07:48:25.038Z,13.40
2023-03-21T07:49:27.153Z,13.50
2023-03-21T07:50:29.392Z,13.50
2023-03-21T07:51:31.287Z,13.60
2023-03-21T07:52:33.367Z,13.60
2023-03-21T07:53:35.404Z,13.70
2023-03-21T07:54:37.060Z,13.70
2023-03-21T07:55:39.035Z,13.80
2023-03-21T07:56:41.617Z,13.80
2023-03-21T07:57:46.074Z,13.80
2023-03-21T07:58:47.754Z,13.80
2023-03-21T07:59:51.846Z,13.90
2023-03-21T08:00:55.565Z,13.90
2023-03-21T08:01:57.956Z,13.90
2023-03-21T08:03:01.279Z,13.90
2023-03-21T08:04:03.009Z,13.90
2023-03-21T08:05:05.084Z,14.00
2023-03-21T08:06:07.213Z,14.00
2023-03-21T08:07:09.285Z,14.00
2023-03-21T08:08:12.731Z,14.10
2023-03-21T08:09:14.612Z,14.10
2023-03-21T08:10:17.121Z,14.10
2023-03-21T08:11:22.129Z,14.10
2023-03-21T08:12:23.992Z,14.20
2023-03-21T08:13:26.136Z,14.20
2023-03-21T08:14:27.913Z,14.20
2023-03-21T08:15:29.707Z,14.20
2023-03-21T08:16:32.013Z,14.20
2023-03-21T08:17:36.302Z,14.20
2023-03-21T08:18:38.445Z,14.20
2023-03-21T08:19:40.140Z,14.20
2023-03-21T08:20:42.121Z,14.20
2023-03-21T08:21:46.989Z,14.20
2023-03-21T08:22:49.519Z,14.20
2023-03-21T08:23:51.419Z,14.20
2023-03-21T08:24:53.112Z,14.30
2023-03-21T08:25:55.815Z,14.30
2023-03-21T08:26:57.617Z,14.30
2023-03-21T08:27:59.334Z,14.30
2023-03-21T08:29:01.036Z,14.40
2023-03-21T08:30:04.222Z,14.40
2023-03-21T08:31:11.857Z,14.40
2023-03-21T08:32:13.757Z,14.50
2023-03-21T08:33:18.598Z,14.50
2023-03-21T08:34:20.569Z,14.50
2023-03-21T08:35:24.908Z,14.50
2023-03-21T08:36:28.360Z,14.50
2023-03-21T08:37:30.707Z,14.60
2023-03-21T08:38:34.459Z,14.60
2023-03-21T08:39:37.503Z,14.60
2023-03-21T08:40:39.235Z,14.60
2023-03-21T08:41:41.107Z,14.60
2023-03-21T08:42:44.941Z,14.70
2023-03-21T08:43:46.869Z,14.70
2023-03-21T08:44:50.569Z,14.80
2023-03-21T08:45:52.575Z,15.00
2023-03-21T08:46:54.405Z,14.90
2023-03-21T08:47:57.389Z,14.90
2023-03-21T08:48:59.282Z,14.90
2023-03-21T08:50:01.215Z,14.90
2023-03-21T08:51:04.479Z,14.90
2023-03-21T08:52:06.264Z,14.90
2023-03-21T08:53:07.948Z,15.00
2023-03-21T08:54:20.673Z,15.00
2023-03-21T08:55:22.362Z,15.00
2023-03-21T08:56:24.140Z,15.10
2023-03-21T08:57:25.832Z,15.10
2023-03-21T08:58:27.546Z,15.20
2023-03-21T08:59:29.412Z,15.20
2023-03-21T09:00:31.061Z,15.20
2023-03-21T09:01:33.779Z,15.20
2023-03-21T09:02:35.475Z,15.20
2023-03-21T09:03:38.778Z,15.10
2023-03-21T09:04:40.801Z,15.10
2023-03-21T09:05:45.511Z,15.10
2023-03-21T09:06:48.830Z,15.20
2023-03-21T09:07:50.480Z,15.20
2023-03-21T09:08:53.568Z,15.20
2023-03-21T09:10:14.909Z,15.20
2023-03-21T09:11:16.934Z,15.30
2023-03-21T09:12:19.293Z,15.30
2023-03-21T09:13:21.686Z,15.30
2023-03-21T09:14:28.443Z,15.30
2023-03-21T09:15:30.571Z,15.30
2023-03-21T09:16:33.277Z,15.30
2023-03-21T09:17:35.424Z,15.30
2023-03-21T09:18:48.770Z,15.30
2023-03-21T09:19:53.240Z,15.30
2023-03-21T09:20:56.436Z,15.20
2023-03-21T09:21:58.342Z,15.20
2023-03-21T09:23:01.635Z,15.20
2023-03-21T09:24:06.654Z,15.10
2023-03-21T09:25:11.268Z,15.10
2023-03-21T09:26:13.669Z,15.10
2023-03-21T09:27:19.089Z,15.20
2023-03-21T09:28:21.037Z,15.20
2023-03-21T09:29:23.182Z,15.30
2023-03-21T09:30:26.489Z,15.30
2023-03-21T09:31:28.677Z,15.40
2023-03-21T09:32:30.506Z,15.40
2023-03-21T09:33:33.246Z,15.50
2023-03-21T09:34:37.340Z,15.50
2023-03-21T09:35:39.424Z,15.60
2023-03-21T09:36:42.289Z,15.60
2023-03-21T09:37:45.067Z,15.70
2023-03-21T09:38:49.424Z,15.80
2023-03-21T09:39:52.120Z,15.90
2023-03-21T09:41:25.108Z,15.90
2023-03-21T09:42:32.422Z,16.00
2023-03-21T09:43:53.823Z,16.00
2023-03-21T09:45:10.232Z,16.10
2023-03-21T09:46:45.923Z,16.10
2023-03-21T09:47:53.852Z,16.20
2023-03-21T09:49:02.004Z,16.20
2023-03-21T09:50:42.312Z,16.30
2023-03-21T09:51:48.840Z,16.30
2023-03-21T09:53:00.444Z,16.30
2023-03-21T09:54:19.566Z,16.30
2023-03-21T09:55:26.510Z,16.30
2023-03-21T09:56:28.425Z,16.30
2023-03-21T09:57:36.634Z,16.40
2023-03-21T09:58:46.489Z,16.40
2023-03-21T09:59:51.119Z,16.40
2023-03-21T10:01:01.392Z,16.40
2023-03-21T10:02:04.348Z,16.40
2023-03-21T10:03:29.724Z,16.40
2023-03-21T10:04:32.478Z,16.40
2023-03-21T10:05:39.644Z,16.40
2023-03-21T10:06:43.892Z,16.50
2023-03-21T10:08:00.161Z,16.50
2023-03-21T10:09:22.973Z,16.60
2023-03-21T10:10:32.768Z,16.60
2023-03-21T10:11:48.871Z,16.60
2023-03-21T10:12:54.017Z,16.70
2023-03-21T10:14:00.405Z,16.80
2023-03-21T10:15:06.491Z,16.80
2023-03-21T10:16:30.907Z,16.90
2023-03-21T10:17:43.493Z,16.80
2023-03-21T10:18:47.257Z,16.90
2023-03-21T10:19:56.055Z,16.90
2023-03-21T10:20:58.643Z,17.00
2023-03-21T10:22:02.711Z,17.00
2023-03-21T10:23:08.657Z,17.00
2023-03-21T10:24:25.539Z,17.10
2023-03-21T10:25:33.624Z,17.10
2023-03-21T10:26:37.013Z,17.10
2023-03-21T10:27:38.878Z,17.20
2023-03-21T10:28:52.292Z,17.20
2023-03-21T10:29:57.736Z,17.30
2023-03-21T10:31:05.626Z,17.30
2023-03-21T10:32:15.753Z,17.40
2023-03-21T10:33:26.686Z,17.50
2023-03-21T10:34:32.986Z,17.50
2023-03-21T10:35:37.507Z,17.50
2023-03-21T10:36:39.960Z,17.60
2023-03-21T10:37:41.947Z,17.60
2023-03-21T10:38:48.984Z,17.60
2023-03-21T10:39:53.774Z,17.60
2023-03-21T10:40:56.294Z,17.60
2023-03-21T10:41:58.822Z,17.60
2023-03-21T10:43:30.230Z,17.70
2023-03-21T10:44:38.069Z,17.70
2023-03-21T10:45:40.245Z,17.80
2023-03-21T10:46:59.631Z,17.80
2023-03-21T10:48:07.571Z,17.80
2023-03-21T10:49:09.505Z,17.80
2023-03-21T10:50:17.814Z,17.70
2023-03-21T10:51:22.451Z,17.70
2023-03-21T10:52:28.619Z,17.70
2023-03-21T10:53:35.898Z,17.70
2023-03-21T10:54:37.843Z,17.70
2023-03-21T10:55:43.235Z,17.70
2023-03-21T10:57:13.479Z,17.70
2023-03-21T10:58:19.138Z,17.80
2023-03-21T10:59:22.708Z,17.80
2023-03-21T11:00:29.096Z,17.90
2023-03-21T11:01:41.938Z,17.90
2023-03-21T11:02:49.651Z,17.90
2023-03-21T11:04:01.744Z,17.90
2023-03-21T11:05:33.012Z,17.90
2023-03-21T11:06:39.188Z,17.90
2023-03-21T11:07:41.689Z,17.90
2023-03-21T11:08:49.379Z,17.90
2023-03-21T11:09:57.459Z,17.90
2023-03-21T11:11:05.707Z,17.90
2023-03-21T11:12:13.458Z,17.90
2023-03-21T11:13:27.500Z,17.90
2023-03-21T11:14:37.165Z,17.90
2023-03-21T11:15:54.789Z,17.90
2023-03-21T11:16:56.513Z,17.90
2023-03-21T11:18:00.180Z,18.00
2023-03-21T11:19:11.652Z,18.00
2023-03-21T11:20:21.381Z,18.00
2023-03-21T11:21:29.639Z,18.00
2023-03-21T11:22:43.724Z,18.10
2023-03-21T11:23:48.618Z,18.10
2023-03-21T11:24:54.102Z,18.10
2023-03-21T11:25:58.838Z,18.20
2023-03-21T11:27:01.864Z,18.20
2023-03-21T11:28:16.904Z,18.20
2023-03-21T11:29:41.197Z,18.30
2023-03-21T11:30:58.570Z,18.30
2023-03-21T11:32:08.762Z,18.30
2023-03-21T11:33:12.306Z,18.40
2023-03-21T11:34:28.201Z,18.40
2023-03-21T11:35:37.025Z,18.40
2023-03-21T11:36:39.346Z,18.40
2023-03-21T11:37:47.056Z,18.40
2023-03-21T11:38:58.521Z,18.40
2023-03-21T11:40:25.134Z,18.40
2023-03-21T11:41:32.285Z,18.40
2023-03-21T11:42:42.364Z,18.40
2023-03-21T11:43:52.293Z,18.40
2023-03-21T11:45:16.479Z,18.50
2023-03-21T11:46:24.590Z,18.40
2023-03-21T11:47:26.479Z,18.40
2023-03-21T11:48:29.199Z,18.40
2023-03-21T11:49:31.503Z,18.50
2023-03-21T11:50:39.829Z,18.40
2023-03-21T11:52:06.653Z,18.40
2023-03-21T11:53:46.745Z,18.40
2023-03-21T11:55:31.994Z,18.40
2023-03-21T11:56:43.981Z,18.40
2023-03-21T11:58:16.747Z,18.40
2023-03-21T11:59:43.401Z,18.40
2023-03-21T12:01:01.285Z,18.40
2023-03-21T12:02:17.807Z,18.40
2023-03-21T12:03:47.131Z,18.40
2023-03-21T12:05:20.436Z,18.40
2023-03-21T12:06:28.775Z,18.40
2023-03-21T12:07:45.429Z,18.30
2023-03-21T12:08:59.057Z,18.30
2023-03-21T12:10:35.612Z,18.20
2023-03-21T12:11:42.883Z,18.20
2023-03-21T12:13:08.914Z,18.20
2023-03-21T12:14:13.752Z,18.10
2023-03-21T12:15:19.030Z,18.10
2023-03-21T12:16:41.311Z,18.10
2023-03-21T12:18:25.591Z,18.10
2023-03-21T12:19:56.185Z,18.00
2023-03-21T12:21:20.462Z,18.00
2023-03-21T12:22:27.257Z,18.00
2023-03-21T12:23:50.516Z,18.00
2023-03-21T12:24:55.149Z,18.00
2023-03-21T12:26:23.502Z,18.00
2023-03-21T12:28:03.009Z,18.10
2023-03-21T12:29:15.000Z,18.10
2023-03-21T12:30:21.193Z,18.10
2023-03-21T12:31:34.065Z,18.10
2023-03-21T12:33:09.475Z,18.10
2023-03-21T12:34:19.239Z,18.10
2023-03-21T12:35:46.847Z,18.10
2023-03-21T12:37:22.740Z,18.20
2023-03-21T12:38:32.835Z,18.20
2023-03-21T12:39:37.039Z,18.20
2023-03-21T12:40:51.048Z,18.20
2023-03-21T12:41:58.620Z,18.20
2023-03-21T12:43:17.643Z,18.20
2023-03-21T12:44:29.123Z,18.20
2023-03-21T12:45:47.108Z,18.20
2023-03-21T12:46:58.367Z,18.30
2023-03-21T12:48:41.386Z,18.30
2023-03-21T12:49:52.887Z,18.30
2023-03-21T12:50:59.914Z,18.40
2023-03-21T12:52:11.932Z,18.40
2023-03-21T12:53:30.152Z,18.40
2023-03-21T12:54:41.848Z,18.40
2023-03-21T12:55:44.349Z,18.40
2023-03-21T12:56:55.441Z,18.40
2023-03-21T12:58:13.574Z,18.40
2023-03-21T12:59:38.961Z,18.40
2023-03-21T13:00:52.917Z,18.40
2023-03-21T13:01:59.786Z,18.40
2023-03-21T13:03:30.247Z,18.40
2023-03-21T13:04:52.580Z,18.40
2023-03-21T13:05:58.454Z,18.50
2023-03-21T13:07:03.546Z,18.60
2023-03-21T13:08:21.047Z,18.60
2023-03-21T13:09:38.336Z,18.60
2023-03-21T13:10:43.520Z,18.70
2023-03-21T13:11:46.638Z,18.70
2023-03-21T13:12:58.637Z,18.80
2023-03-21T13:14:14.999Z,18.80
2023-03-21T13:15:38.555Z,18.80
2023-03-21T13:16:43.501Z,18.90
2023-03-21T13:18:01.398Z,18.90
2023-03-21T13:19:29.848Z,18.90
2023-03-21T13:20:43.500Z,18.90
2023-03-21T13:21:50.823Z,18.90
2023-03-21T13:22:54.011Z,18.90
2023-03-21T13:24:04.752Z,18.90
2023-03-21T13:25:20.067Z,18.80
2023-03-21T13:26:33.324Z,18.80
2023-03-21T13:27:37.160Z,18.80
2023-03-21T13:28:46.672Z,18.80
2023-03-21T13:29:58.139Z,18.90
2023-03-21T13:31:19.972Z,18.80
2023-03-21T13:32:45.954Z,18.80
2023-03-21T13:33:53.744Z,18.80
2023-03-21T13:35:13.902Z,18.80
2023-03-21T13:36:22.675Z,18.80
2023-03-21T13:37:29.202Z,18.80
2023-03-21T13:38:35.026Z,18.80
2023-03-21T13:39:45.785Z,18.80
2023-03-21T13:41:03.652Z,18.90
2023-03-21T13:42:16.516Z,18.80
2023-03-21T13:43:38.402Z,18.90
2023-03-21T13:44:43.272Z,18.80
2023-03-21T13:45:52.163Z,18.80
2023-03-21T13:46:59.643Z,18.80
2023-03-21T13:48:07.437Z,18.80
2023-03-21T13:49:09.411Z,18.80
2023-03-21T13:50:24.622Z,18.80
2023-03-21T13:51:32.064Z,18.80
2023-03-21T13:52:34.093Z,18.80
2023-03-21T13:53:46.362Z,18.80
2023-03-21T13:54:57.982Z,18.70
2023-03-21T13:56:10.056Z,18.70
2023-03-21T13:57:28.075Z,18.70
2023-03-21T13:58:48.279Z,18.70
2023-03-21T13:59:50.124Z,18.70
2023-03-21T14:01:11.187Z,18.70
2023-03-21T14:02:37.739Z,18.60
2023-03-21T14:03:41.561Z,18.60
2023-03-21T14:05:00.303Z,18.60
2023-03-21T14:06:07.023Z,18.60
2023-03-21T14:07:12.824Z,18.60
2023-03-21T14:08:27.797Z,18.60
2023-03-21T14:09:42.695Z,18.50
2023-03-21T14:10:49.056Z,18.60
2023-03-21T14:11:54.705Z,18.50
2023-03-21T14:13:00.142Z,18.60
2023-03-21T14:14:04.262Z,18.50
2023-03-21T14:15:19.385Z,18.60
2023-03-21T14:16:25.915Z,18.60
2023-03-21T14:17:33.181Z,18.60
2023-03-21T14:18:59.546Z,18.60
2023-03-21T14:20:13.068Z,18.60
2023-03-21T14:21:24.356Z,18.60
2023-03-21T14:22:27.086Z,18.50
2023-03-21T14:23:29.218Z,18.60
2023-03-21T14:24:30.930Z,18.50
2023-03-21T14:25:44.368Z,18.60
2023-03-21T14:26:52.131Z,18.50
2023-03-21T14:28:00.681Z,18.50
2023-03-21T14:29:12.345Z,18.60
2023-03-21T14:30:34.786Z,18.60
2023-03-21T14:31:39.513Z,18.60
2023-03-21T14:32:41.891Z,18.60
2023-03-21T14:33:52.328Z,18.70
2023-03-21T14:34:58.677Z,18.70
2023-03-21T14:36:06.487Z,18.70
2023-03-21T14:37:11.580Z,18.70
2023-03-21T14:38:25.624Z,18.70
2023-03-21T14:39:31.014Z,18.80